Latest Weather Observations for Kingaroy

IDQ60901

Issued at 11:21 am EST Friday 4 September 2015 (issued every 10 minutes, with the page automatically refreshed every 10 minutes)

About weather observations | Map of Brisbane area stations | Latest observations for Brisbane area | Other Formats
Station Details ID: 040922 Name: KINGAROY AIRPORT Lat: -26.57 Lon: 151.84 Height: 433.67 m
Data from the previous 72 hours. | See also: Recent months at Kingaroy
Date/Time
EST
Tmp

°C
App
Tmp
°C
Dew
Point
°C
Rel
Hum
%
Delta-T

°C
Wind Press
QNH
hPa
Press
MSL
hPa
Rain
since
9 am
mm
Dir
 
Spd
km/h
Gust
km/h
Spd
kts
Gust
kts
04/11:00am 18.5 14.1 5.0 41 6.6 SSE 17 24 9 13 1019.7 1018.7 0.0
04/10:30am 17.4 12.9 4.0 41 6.4 SSW 17 24 9 13 1019.9 1018.9 0.0
04/10:00am 17.6 12.2 4.5 42 6.3 S 22 30 12 16 1020.2 1019.2 0.0
04/09:30am 16.3 12.1 5.9 50 5.1 SW 17 24 9 13 1020.2 1019.2 0.0
04/09:00am 15.2 11.1 6.0 54 4.5 SW 17 20 9 11 1020.2 1019.2 0.2
04/08:30am 14.3 9.6 5.9 57 4.1 SSW 20 28 11 15 1020.1 1019.1 0.2
04/08:00am 12.9 8.4 6.0 63 3.3 SSW 19 24 10 13 1019.7 1018.7 0.2
04/07:30am 11.9 8.6 6.2 68 2.7 S 13 15 7 8 1019.4 1018.4 0.2
04/07:00am 10.9 8.0 6.3 73 2.2 S 11 15 6 8 1019.4 1018.4 0.2
04/06:30am 9.3 6.7 5.9 79 1.6 S 9 13 5 7 1018.8 1017.8 0.2
04/06:00am 9.8 7.4 5.4 74 2.0 W 7 11 4 6 1018.2 1017.2 0.2
04/05:30am 9.3 7.1 5.5 77 1.8 SE 6 17 3 9 1018.0 1017.0 0.2
04/05:00am 9.2 5.6 5.2 76 1.8 S 13 26 7 14 1017.5 1016.5 0.2
04/04:30am 10.3 5.7 5.7 73 2.2 S 19 30 10 16 1017.3 1016.3 0.2
04/04:00am 9.8 6.3 5.4 74 2.0 S 13 19 7 10 1016.8 1015.8 0.2
04/03:30am 11.0 6.7 5.1 67 2.8 S 17 24 9 13 1016.5 1015.4 0.2
04/03:00am 10.6 7.2 3.9 63 3.0 S 11 20 6 11 1016.5 1015.4 0.2
04/02:30am 12.3 7.2 4.0 57 3.8 SW 20 30 11 16 1016.5 1015.4 0.2
04/02:00am 11.6 7.7 3.4 57 3.7 SSW 13 19 7 10 1016.9 1015.9 0.2
04/01:30am 12.9 8.7 3.6 53 4.3 SSW 15 26 8 14 1017.0 1016.0 0.2
04/01:00am 13.6 8.0 3.7 51 4.6 SW 22 35 12 19 1017.0 1016.0 0.2
04/12:30am 13.5 7.2 3.6 51 4.6 SW 26 33 14 18 1017.1 1016.1 0.2
04/12:00am 13.5 7.2 3.8 52 4.5 SW 26 37 14 20 1017.5 1016.5 0.2
 
Date/Time
EST
Tmp

°C
App
Tmp
°C
Dew
Point
°C
Rel
Hum
%
Delta-T

°C
Wind Press
QNH
hPa
Press
MSL
hPa
Rain
since
9 am
mm
Dir
 
Spd
km/h
Gust
km/h
Spd
kts
Gust
kts
03/11:30pm 13.7 7.8 4.0 52 4.5 SW 24 35 13 19 1017.7 1016.7 0.2
03/11:00pm 13.5 8.4 4.1 53 4.4 SW 20 28 11 15 1017.6 1016.6 0.2
03/10:30pm 12.7 8.2 4.4 57 3.9 SW 17 20 9 11 1017.6 1016.6 0.2
03/10:00pm 12.9 9.6 4.3 56 4.0 SW 11 15 6 8 1017.7 1016.7 0.2
03/09:30pm 13.8 9.7 4.4 53 4.4 SW 15 22 8 12 1017.3 1016.3 0.2
03/09:00pm 13.5 9.4 4.1 53 4.4 WSW 15 20 8 11 1017.0 1016.0 0.2
03/08:30pm 14.2 11.2 3.9 50 4.8 SW 9 13 5 7 1016.9 1015.9 0.2
03/08:00pm 14.9 11.2 4.3 49 5.0 WSW 13 20 7 11 1016.5 1015.4 0.2
03/07:30pm 15.5 11.0 4.2 47 5.4 WSW 17 22 9 12 1015.9 1014.9 0.2
03/07:00pm 16.7 12.2 4.1 43 6.0 W 17 28 9 15 1015.4 1014.4 0.2
03/06:30pm 17.2 12.2 3.8 41 6.4 WSW 19 30 10 16 1015.2 1014.2 0.2
03/06:00pm 17.3 12.1 3.6 40 6.5 WSW 20 32 11 17 1014.8 1013.8 0.2
03/05:30pm 18.1 12.2 3.9 39 6.8 WSW 24 35 13 19 1014.3 1013.2 0.2
03/05:00pm 19.2 12.1 3.4 35 7.6 WSW 30 44 16 24 1013.5 1012.5 0.2
03/04:30pm 19.9 11.7 2.7 32 8.2 WSW 35 54 19 29 1013.2 1012.2 0.2
03/04:09pm 20.3 12.3 1.7 29 8.7 WSW 33 52 18 28 1012.9 1011.9 0.2
03/04:00pm 20.7 12.8 2.0 29 8.8 WSW 33 50 18 27 1012.7 1011.7 0.2
03/03:33pm 21.3 13.2 -0.6 23 9.9 WSW 32 50 17 27 1012.2 1011.1 0.2
03/03:30pm 21.6 13.6 0.2 24 9.8 W 32 48 17 26 1012.1 1011.0 0.2
03/03:00pm 22.3 14.3 0.2 23 10.2 W 32 44 17 24 1011.8 1010.7 0.2
03/02:30pm 22.1 14.4 3.3 29 9.2 WNW 33 52 18 28 1011.6 1010.5 0.2
03/02:24pm 21.9 14.6 2.6 28 9.3 WNW 30 52 16 28 1011.7 1010.6 0.2
03/02:00pm 22.4 15.5 7.4 38 8.0 NW 33 54 18 29 1011.5 1010.4 0.2
03/01:30pm 21.2 14.9 5.5 36 8.0 WNW 28 41 15 22 1011.9 1010.8 0.2
03/01:00pm 20.1 13.7 5.0 37 7.5 W 28 41 15 22 1012.7 1011.7 0.0
03/12:30pm 19.8 12.9 4.7 37 7.5 W 30 46 16 25 1013.1 1012.1 0.0
03/12:25pm 20.5 14.1 6.8 41 7.1 WSW 30 48 16 26 1013.1 1012.1 0.0
03/12:00pm 19.3 13.2 6.8 44 6.4 W 28 39 15 21 1013.5 1012.5 0.0
03/11:30am 19.2 13.4 7.9 48 5.9 W 28 39 15 21 1014.0 1012.9 0.0
03/11:00am 18.7 13.7 8.1 50 5.6 W 24 33 13 18 1014.5 1013.4 0.0
03/10:30am 16.6 11.7 5.3 47 5.5 WSW 20 33 11 18 1014.9 1013.9 0.0
03/10:00am 16.9 12.3 6.7 51 5.2 WSW 20 35 11 19 1014.7 1013.7 0.0
03/09:30am 15.3 11.9 9.2 67 3.2 WSW 17 28 9 15 1014.8 1013.8 0.0
03/09:00am 19.0 17.2 17.8 93 0.7 NW 24 32 13 17 1014.2 1013.1 7.0
03/08:30am 17.8 15.7 17.2 96 0.4 NW 24 32 13 17 1014.4 1013.3 7.0
03/08:00am 17.3 15.0 16.7 96 0.4 NNW 24 37 13 20 1014.5 1013.4 7.0
03/07:30am 16.8 15.1 16.3 97 0.3 NW 20 26 11 14 1014.3 1013.2 6.8
03/07:00am 16.9 16.1 16.1 95 0.5 N 15 22 8 12 1013.8 1012.8 5.0
03/06:30am 16.7 15.1 15.9 95 0.5 NNW 19 26 10 14 1013.7 1012.7 4.8
03/06:00am 16.7 14.8 15.7 94 0.6 NNW 20 32 11 17 1013.5 1012.5 4.8
03/05:30am 16.6 14.3 15.8 95 0.5 N 22 32 12 17 1013.3 1012.3 4.8
03/05:00am 16.6 14.9 15.8 95 0.5 N 19 28 10 15 1012.8 1011.8 4.8
03/04:30am 16.3 14.4 15.7 96 0.4 N 20 30 11 16 1013.1 1012.1 4.8
03/04:00am 16.3 14.5 15.5 95 0.5 N 19 33 10 18 1012.9 1011.9 4.8
03/03:30am 16.1 15.4 15.3 95 0.5 N 13 20 7 11 1013.5 1012.5 4.8
03/03:00am 16.0 15.2 15.2 95 0.5 N 13 19 7 10 1013.7 1012.7 4.8
03/02:30am 16.1 15.4 15.3 95 0.5 NNE 13 17 7 9 1014.0 1012.9 4.8
03/02:00am 15.5 15.4 15.0 97 0.3 NNE 9 13 5 7 1014.6 1013.5 4.8
03/01:30am 15.4 14.9 14.9 97 0.3 W 11 15 6 8 1015.4 1014.4 4.6
03/01:00am 15.4 15.2 14.6 95 0.5 W 9 13 5 7 1016.1 1015.1 2.4
03/12:30am 15.5 15.6 14.0 91 0.9 E 6 15 3 8 1014.8 1013.8 1.0
03/12:00am 15.8 14.3 13.1 84 1.5 NNE 13 17 7 9 1015.7 1014.7 0.0
 
Date/Time
EST
Tmp

°C
App
Tmp
°C
Dew
Point
°C
Rel
Hum
%
Delta-T

°C
Wind Press
QNH
hPa
Press
MSL
hPa
Rain
since
9 am
mm
Dir
 
Spd
km/h
Gust
km/h
Spd
kts
Gust
kts
02/11:30pm 15.9 14.6 12.5 80 1.9 NE 11 28 6 15 1015.5 1014.5 0.0
02/11:00pm 16.0 14.7 12.4 79 2.0 NE 11 17 6 9 1015.9 1014.9 0.0
02/10:30pm 16.7 15.1 11.4 71 2.9 NNW 11 19 6 10 1016.8 1015.8 0.0
02/10:00pm 17.1 15.1 11.4 69 3.2 NNE 13 20 7 11 1015.9 1014.9 0.0
02/09:30pm 17.5 15.4 11.1 66 3.5 N 13 17 7 9 1016.0 1015.0 0.0
02/09:00pm 17.2 15.2 10.3 64 3.7 NNE 11 20 6 11 1015.3 1014.3 0.0
02/08:30pm 17.2 14.4 10.1 63 3.8 NNE 15 22 8 12 1015.5 1014.5 0.0
02/08:00pm 17.6 15.2 8.5 55 4.8 NNE 11 15 6 8 1015.5 1014.5 0.0
02/07:30pm 18.2 14.8 6.1 45 6.1 NE 13 17 7 9 1015.5 1014.5 0.0
02/07:00pm 18.0 15.4 4.2 40 6.7 ENE 7 11 4 6 1015.1 1014.1 0.0
02/06:30pm 17.9 15.5 4.5 41 6.5 ENE 6 9 3 5 1014.9 1013.9 0.0
02/06:00pm 19.1 16.1 4.1 37 7.3 NNE 9 13 5 7 1015.1 1014.1 0.0
02/05:30pm 21.4 17.2 3.6 31 8.7 NNE 15 20 8 11 1015.0 1014.0 0.0
02/05:00pm 22.8 18.5 3.4 28 9.6 NNE 15 26 8 14 1015.2 1014.2 0.0
02/04:30pm 23.8 19.0 2.6 25 10.4 NNE 17 26 9 14 1015.1 1014.1 0.0
02/04:00pm 24.3 19.3 3.6 26 10.3 N 19 28 10 15 1014.9 1013.9 0.0
02/03:30pm 24.4 19.8 3.7 26 10.4 NNE 17 28 9 15 1014.7 1013.7 0.0
02/03:00pm 24.6 20.5 4.4 27 10.3 N 15 20 8 11 1015.1 1014.1 0.0
02/02:30pm 24.4 19.3 3.1 25 10.6 NNW 19 30 10 16 1015.5 1014.5 0.0
02/02:00pm 24.3 19.4 4.1 27 10.2 NNW 19 28 10 15 1015.9 1014.9 0.0
02/01:30pm 25.0 20.2 4.7 27 10.4 N 19 24 10 13 1016.5 1015.4 0.0
02/01:00pm 23.8 18.5 3.2 26 10.2 N 20 32 11 17 1017.0 1016.0 0.0
02/12:30pm 23.9 18.6 3.2 26 10.2 NNW 20 30 11 16 1017.7 1016.7 0.0
02/12:00pm 23.3 17.7 1.0 23 10.5 NNW 20 30 11 16 1018.3 1017.3 0.0
02/11:30am 22.8 18.0 2.8 27 9.8 N 17 26 9 14 1018.9 1017.9 0.0
02/11:00am 21.8 16.3 0.9 25 9.7 N 19 30 10 16 1019.4 1018.4 0.0
02/10:30am 21.5 15.9 1.2 26 9.5 N 20 28 11 15 1019.9 1018.9 0.0
02/10:00am 20.4 17.0 4.0 34 8.0 N 11 20 6 11 1020.1 1019.1 0.0
02/09:30am 18.7 16.8 4.8 40 6.8 NW 4 13 2 7 1020.5 1019.5 0.0
02/09:00am 15.3 14.7 7.6 60 3.9 CALM 0 6 0 3 1020.4 1019.4 0.0
02/08:30am 12.3 10.8 6.6 68 2.8 W 4 7 2 4 1020.1 1019.1 0.0
02/08:00am 8.9 7.8 5.3 78 1.7 CALM 0 0 0 0 1020.0 1019.0 0.0
02/07:30am 6.4 5.3 4.9 90 0.7 CALM 0 0 0 0 1019.9 1018.9 0.0
02/07:00am 3.8 1.6 3.4 97 0.2 S 4 7 2 4 1019.8 1018.8 0.0
02/06:30am 1.9 -1.2 1.2 95 0.3 S 7 9 4 5 1019.4 1018.4 0.0
02/06:00am 1.6 -0.3 0.6 93 0.4 CALM 0 0 0 0 1019.3 1018.3 0.0
02/05:30am 2.3 0.6 1.6 95 0.3 CALM 0 0 0 0 1019.0 1018.0 0.0
02/05:00am 2.4 0.7 1.7 95 0.3 CALM 0 0 0 0 1018.8 1017.8 0.0
02/04:30am 2.3 0.6 1.6 95 0.3 CALM 0 0 0 0 1018.5 1017.5 0.0
02/04:00am 2.0 -0.6 0.8 92 0.5 S 4 6 2 3 1018.2 1017.2 0.0
02/03:30am 2.5 -0.4 1.3 92 0.5 S 6 7 3 4 1018.1 1017.1 0.0
02/03:00am 2.3 -0.9 1.0 91 0.5 S 7 9 4 5 1017.9 1016.9 0.0
02/02:30am 3.0 1.3 1.7 91 0.5 CALM 0 0 0 0 1018.1 1017.1 0.0
02/02:00am 3.3 1.6 2.0 91 0.5 CALM 0 0 0 0 1018.3 1017.3 0.0
02/01:30am 3.5 1.7 1.4 86 0.8 CALM 0 0 0 0 1018.2 1017.2 0.0
02/01:00am 3.9 2.2 1.9 87 0.8 CALM 0 0 0 0 1018.2 1017.2 0.0
02/12:30am 4.3 2.7 2.5 88 0.7 CALM 0 0 0 0 1018.3 1017.3 0.0
02/12:00am 4.7 3.2 2.9 88 0.8 CALM 0 0 0 0 1018.3 1017.3 0.0
 
Date/Time
EST
Tmp

°C
App
Tmp
°C
Dew
Point
°C
Rel
Hum
%
Delta-T

°C
Wind Press
QNH
hPa
Press
MSL
hPa
Rain
since
9 am
mm
Dir
 
Spd
km/h
Gust
km/h
Spd
kts
Gust
kts
01/11:30pm 5.4 2.6 2.9 84 1.1 S 7 7 4 4 1018.3 1017.3 0.0
01/11:00pm 5.8 4.3 3.1 83 1.1 CALM 0 0 0 0 1018.2 1017.2 0.0
01/10:30pm 6.3 4.9 3.3 81 1.3 CALM 0 0 0 0 1018.2 1017.2 0.0
01/10:00pm 6.5 4.9 2.6 76 1.7 CALM 0 0 0 0 1018.0 1017.0 0.0
01/09:30pm 6.9 5.1 3.5 79 1.5 S 2 6 1 3 1017.9 1016.9 0.0
01/09:00pm 6.7 3.5 3.1 78 1.5 S 9 13 5 7 1017.9 1016.9 0.0
01/08:30pm 9.0 6.2 3.4 68 2.5 S 7 9 4 5 1018.0 1017.0 0.0
01/08:00pm 9.5 7.5 4.3 70 2.4 E 4 6 2 3 1017.8 1016.8 0.0
01/07:30pm 10.5 8.0 3.8 63 3.0 SE 6 7 3 4 1017.5 1016.5 0.0
01/07:00pm 11.6 9.0 4.1 60 3.4 E 7 9 4 5 1017.1 1016.1 0.0
01/06:30pm 13.2 12.1 4.9 57 3.9 CALM 0 4 0 2 1016.7 1015.6 0.0
01/06:00pm 16.1 12.9 0.7 35 6.8 WNW 7 9 4 5 1016.4 1015.3 0.0
01/05:30pm 18.6 15.4 0.7 30 8.1 W 7 9 4 5 1015.9 1014.9 0.0
01/05:00pm 19.9 15.6 0.9 28 8.7 SW 13 20 7 11 1015.7 1014.7 0.0
01/04:30pm 20.7 15.9 0.0 25 9.4 SW 15 22 8 12 1015.6 1014.6 0.0
01/04:00pm 21.2 16.5 -2.0 21 10.2 WSW 13 22 7 12 1015.3 1014.3 0.0
01/03:30pm 21.5 15.6 -2.4 20 10.4 SW 19 28 10 15 1015.3 1014.3 0.0
01/03:00pm 21.9 16.5 -1.4 21 10.4 SW 17 24 9 13 1015.4 1014.4 0.0
01/02:30pm 21.6 16.1 -2.3 20 10.5 W 17 24 9 13 1015.5 1014.5 0.0
01/02:00pm 21.8 15.8 -1.5 21 10.4 WSW 20 28 11 15 1015.7 1014.7 0.0
01/01:30pm 21.6 16.3 -0.4 23 10.0 WSW 17 28 9 15 1015.8 1014.8 0.0
01/01:00pm 21.2 15.3 -2.0 21 10.2 WNW 19 28 10 15 1016.2 1015.2 0.0
01/12:30pm 21.3 16.5 0.5 25 9.6 W 15 24 8 13 1016.7 1015.6 0.0
01/12:00pm 20.3 15.4 -0.3 25 9.3 W 15 26 8 14 1017.0 1016.0 0.0
01/11:30am 20.2 15.8 0.6 27 9.0 NW 13 22 7 12 1017.4 1016.4 0.0

Latest Capital City Observations: Canberra | Sydney | Melbourne | Brisbane | Adelaide | Perth | Hobart | Darwin

Other Formats:

Comma delimited format used in spreadsheet applications
http://www.bom.gov.au/fwo/IDQ60901/IDQ60901.94549.axf

JavaScript Object Notation format (JSON) in row-major order
http://www.bom.gov.au/fwo/IDQ60901/IDQ60901.94549.json